Time;durP1;ratioP1;P1;durP2;ratioP2;P2;SDS_P1;SDS_P2;PMS_P1;PMS_P2;Temp;Humidity;BMP_temperature;BMP_pressure;BME280_temperature;BME280_humidity;BME280_pressure;Samples;Min_cycle;Max_cycle;Signal;HPM_P1;HPM_P2
2022/03/26 00:00:05;;;;;;;42.75;27.52;;;;;;;11.00;49.79;102994.59;5103627;28;20103;-63
2022/03/26 00:02:31;;;;;;;40.72;26.73;;;;;;;10.94;49.80;102992.09;5100071;28;20071;-63
2022/03/26 00:04:57;;;;;;;43.35;28.80;;;;;;;11.07;49.93;103000.63;5097318;28;20047;-63
2022/03/26 00:07:23;;;;;;;40.33;27.85;;;;;;;11.07;49.86;103001.47;5093135;28;20103;-63
2022/03/26 00:09:48;;;;;;;42.40;26.73;;;;;;;11.03;49.69;102999.84;5102863;28;20027;-63
2022/03/26 00:12:13;;;;;;;36.13;27.20;;;;;;;11.02;49.95;102991.88;5082725;28;20048;-63
2022/03/26 00:14:39;;;;;;;37.25;25.52;;;;;;;10.97;49.79;102991.16;5073093;28;20460;-63
2022/03/26 00:17:04;;;;;;;47.72;28.13;;;;;;;10.89;49.87;102986.06;5076161;28;20440;-63
2022/03/26 00:19:30;;;;;;;37.97;26.45;;;;;;;10.73;50.33;102993.63;5078885;28;20035;-63
2022/03/26 00:21:58;;;;;;;44.15;27.67;;;;;;;10.75;50.42;102993.59;5064704;28;20027;-63
2022/03/26 00:24:24;;;;;;;43.17;27.90;;;;;;;10.61;50.84;103000.16;5095391;28;20055;-63
2022/03/26 00:26:49;;;;;;;46.15;27.67;;;;;;;10.65;50.77;102991.19;5079024;28;20062;-63
2022/03/26 00:29:16;;;;;;;38.83;26.48;;;;;;;10.68;50.61;102993.75;5079833;28;20105;-63
2022/03/26 00:31:41;;;;;;;40.10;27.13;;;;;;;10.57;50.05;102985.22;5065579;28;20040;-63
2022/03/26 00:34:08;;;;;;;42.75;27.13;;;;;;;10.53;50.75;102988.00;5066504;28;20054;-63
2022/03/26 00:36:34;;;;;;;41.65;26.85;;;;;;;10.56;50.51;102983.47;5095278;28;20024;-63
2022/03/26 00:39:00;;;;;;;41.83;27.33;;;;;;;10.49;50.89;102992.53;5100533;28;20019;-63
2022/03/26 00:41:25;;;;;;;41.17;27.92;;;;;;;10.57;50.65;102984.34;5091751;28;20028;-63
2022/03/26 00:43:53;;;;;;;46.25;27.63;;;;;;;10.56;50.51;102985.25;5104995;28;20030;-63
2022/03/26 00:46:19;;;;;;;39.45;26.88;;;;;;;10.60;50.94;102994.91;5075437;28;20496;-63
2022/03/26 00:48:45;;;;;;;45.63;27.65;;;;;;;10.45;51.13;102993.56;5073593;28;20103;-63
2022/03/26 00:51:15;;;;;;;44.60;26.92;;;;;;;10.32;51.18;102993.00;5079995;28;20023;-63
2022/03/26 00:53:44;;;;;;;42.42;28.48;;;;;;;10.46;50.81;102995.28;5098474;28;20031;-63
2022/03/26 00:56:10;;;;;;;46.38;28.08;;;;;;;10.23;51.19;102986.13;5109590;28;20494;-63
2022/03/26 00:58:37;;;;;;;42.03;28.30;;;;;;;10.04;52.19;102986.66;5078219;28;20038;-63
2022/03/26 01:01:04;;;;;;;45.15;27.45;;;;;;;10.13;51.80;102994.41;5102359;28;20099;-63
2022/03/26 01:03:30;;;;;;;40.08;28.15;;;;;;;10.10;51.97;102999.78;5082221;28;20031;-63
2022/03/26 01:05:55;;;;;;;41.72;26.95;;;;;;;10.05;52.29;102991.06;5054924;28;20042;-63
2022/03/26 01:08:21;;;;;;;38.22;26.83;;;;;;;9.85;52.74;102997.75;5096186;28;20024;-63
2022/03/26 01:10:47;;;;;;;45.00;28.00;;;;;;;9.84;52.68;102982.72;5075028;28;20051;-63
2022/03/26 01:13:14;;;;;;;42.90;26.38;;;;;;;9.90;52.73;102984.34;5099045;28;20429;-63
2022/03/26 01:15:39;;;;;;;42.85;27.63;;;;;;;9.92;52.49;102979.88;5079566;28;20554;-63
2022/03/26 01:18:06;;;;;;;43.95;28.52;;;;;;;9.91;52.74;102980.78;5065544;28;20119;-63
2022/03/26 01:20:34;;;;;;;40.28;28.73;;;;;;;9.89;52.80;102985.28;5095665;28;20432;-63
2022/03/26 01:22:59;;;;;;;46.00;29.10;;;;;;;9.74;52.75;102971.47;5095666;28;20076;-63
2022/03/26 01:25:27;;;;;;;42.78;27.58;;;;;;;9.82;52.84;102981.00;5108919;28;20071;-63
2022/03/26 01:27:52;;;;;;;47.90;28.77;;;;;;;9.70;53.25;102975.09;5081612;28;20573;-64
2022/03/26 01:30:18;;;;;;;50.20;29.55;;;;;;;9.73;53.02;102977.66;5088026;28;20119;-63
2022/03/26 01:32:44;;;;;;;47.33;29.70;;;;;;;9.69;53.24;102978.69;5079190;28;20028;-63
2022/03/26 01:35:11;;;;;;;39.95;27.77;;;;;;;9.58;53.58;102966.56;5106016;28;20093;-63
2022/03/26 01:37:37;;;;;;;42.70;28.08;;;;;;;9.57;53.65;102971.00;5097358;28;20080;-63
2022/03/26 01:40:04;;;;;;;41.97;28.08;;;;;;;9.63;53.21;102976.16;5097276;28;20031;-63
2022/03/26 01:42:30;;;;;;;49.72;28.70;;;;;;;9.59;53.52;102974.50;5104006;28;20026;-63
2022/03/26 01:44:55;;;;;;;42.30;27.70;;;;;;;9.51;53.46;102981.78;5097609;28;20028;-63
2022/03/26 01:47:20;;;;;;;45.45;28.77;;;;;;;9.43;53.90;102983.75;5110807;28;20023;-63
2022/03/26 01:49:46;;;;;;;46.50;28.10;;;;;;;9.40;53.82;102983.81;5077019;28;20032;-63
2022/03/26 01:52:12;;;;;;;45.25;27.20;;;;;;;9.27;53.69;102973.50;5076840;28;20027;-63
2022/03/26 01:54:39;;;;;;;40.40;27.75;;;;;;;9.31;54.09;102993.75;5093351;28;20697;-63
2022/03/26 01:57:07;;;;;;;46.80;29.50;;;;;;;9.20;54.62;102990.47;5105694;28;20020;-63
2022/03/26 01:59:33;;;;;;;48.42;27.92;;;;;;;9.03;54.84;102990.88;5095226;28;20024;-63
2022/03/26 02:01:58;;;;;;;42.72;27.63;;;;;;;9.07;55.00;102984.56;5108261;28;20023;-63
2022/03/26 02:04:24;;;;;;;44.47;29.42;;;;;;;8.93;55.34;102973.38;5104124;28;20086;-63
2022/03/26 02:06:50;;;;;;;44.20;26.67;;;;;;;8.94;55.17;102985.75;5103022;28;20015;-63
2022/03/26 02:09:16;;;;;;;49.80;28.27;;;;;;;8.93;55.79;102984.00;5097592;28;20020;-63
2022/03/26 02:11:46;;;;;;;41.35;27.83;;;;;;;8.86;56.09;102988.56;5078829;28;20019;-63
2022/03/26 02:14:12;;;;;;;43.40;28.38;;;;;;;8.75;56.31;102981.75;5098272;28;20031;-63
2022/03/26 02:16:42;;;;;;;45.20;29.13;;;;;;;8.77;57.03;102983.47;5100929;28;20040;-63
2022/03/26 02:19:09;;;;;;;43.50;27.98;;;;;;;8.75;57.21;102974.66;5098634;28;20027;-63
2022/03/26 02:21:35;;;;;;;42.08;28.42;;;;;;;8.76;56.91;102984.34;5092184;28;20028;-63
2022/03/26 02:24:03;;;;;;;41.75;27.98;;;;;;;8.68;57.72;102983.66;5077648;28;20028;-63
2022/03/26 02:26:29;;;;;;;44.95;28.23;;;;;;;8.72;57.22;102973.84;5095924;28;20036;-63
2022/03/26 02:28:57;;;;;;;48.35;28.27;;;;;;;8.81;57.16;102977.16;5076178;28;20044;-63
2022/03/26 02:31:27;;;;;;;41.85;28.85;;;;;;;8.75;56.95;102976.44;5100421;28;20035;-63
2022/03/26 02:33:52;;;;;;;;;;;;;;;8.97;54.61;102980.38;5062955;28;20032;-63
2022/03/26 02:36:22;;;;;;;43.95;27.08;;;;;;;8.70;57.39;102973.88;5093069;28;19911;-63
2022/03/26 02:38:47;;;;;;;46.33;28.08;;;;;;;8.63;57.33;102986.38;5086032;28;20085;-63
2022/03/26 02:41:13;;;;;;;42.75;28.23;;;;;;;8.62;57.77;102991.75;5099118;28;20044;-63
2022/03/26 02:43:38;;;;;;;43.45;27.92;;;;;;;8.57;58.12;102983.00;5082706;28;20501;-63
2022/03/26 02:46:04;;;;;;;39.88;27.77;;;;;;;8.60;57.83;102982.94;5100203;28;20020;-63
2022/03/26 02:48:30;;;;;;;47.33;29.13;;;;;;;8.49;58.00;102985.78;5079069;28;20397;-63
2022/03/26 02:50:58;;;;;;;42.53;28.40;;;;;;;8.49;58.18;102974.31;5080408;28;20083;-63
2022/03/26 02:53:24;;;;;;;43.40;28.55;;;;;;;8.57;58.07;102985.66;5067949;28;20397;-63
2022/03/26 02:55:52;;;;;;;40.22;27.17;;;;;;;8.66;57.94;102989.91;5094672;28;20107;-63
2022/03/26 02:58:18;;;;;;;44.10;27.98;;;;;;;8.57;58.11;102972.38;5106668;28;20035;-63
2022/03/26 03:00:43;;;;;;;46.40;27.83;;;;;;;8.50;58.11;102984.00;5099607;28;20020;-63
2022/03/26 03:03:09;;;;;;;40.42;26.73;;;;;;;8.50;57.77;102982.25;5074898;28;20097;-63
2022/03/26 03:05:35;;;;;;;43.95;27.92;;;;;;;8.45;58.09;102968.22;5065278;28;20032;-63
2022/03/26 03:08:01;;;;;;;41.40;28.02;;;;;;;8.43;58.68;102974.44;5095541;28;20576;-63
2022/03/26 03:10:31;;;;;;;45.00;29.77;;;;;;;8.40;58.34;102973.59;5093413;28;20043;-63
2022/03/26 03:12:59;;;;;;;44.03;28.20;;;;;;;8.31;58.72;102973.75;5072651;28;20024;-63
2022/03/26 03:15:25;;;;;;;46.53;29.13;;;;;;;8.37;58.56;102975.41;5076531;28;20497;-63
2022/03/26 03:17:51;;;;;;;43.05;27.30;;;;;;;8.16;59.12;102982.00;5094374;28;20027;-63
2022/03/26 03:20:17;;;;;;;48.10;29.73;;;;;;;8.12;59.46;102980.31;5064087;28;20035;-63
2022/03/26 03:22:43;;;;;;;42.63;28.33;;;;;;;8.08;59.64;102983.91;5095790;28;20386;-63
2022/03/26 03:25:12;;;;;;;44.00;28.60;;;;;;;8.25;58.97;102980.94;5101628;28;20023;-63
2022/03/26 03:27:40;;;;;;;44.83;28.25;;;;;;;8.18;59.03;102978.41;5067607;28;20104;-63
2022/03/26 03:30:06;;;;;;;44.58;28.27;;;;;;;8.13;59.55;102984.69;5094446;28;20050;-63
2022/03/26 03:32:32;;;;;;;50.20;28.98;;;;;;;8.08;59.61;102986.53;5108980;28;20024;-63
2022/03/26 03:34:58;;;;;;;41.92;28.55;;;;;;;8.06;59.50;102977.75;5096779;28;20072;-63
2022/03/26 03:37:24;;;;;;;43.55;29.30;;;;;;;8.13;59.46;102982.03;5098772;28;20031;-63
2022/03/26 03:39:49;;;;;;;52.05;29.05;;;;;;;8.15;59.40;102974.94;5083137;28;20024;-63
2022/03/26 03:42:15;;;;;;;48.88;28.80;;;;;;;8.09;59.28;102978.59;5082451;28;20387;-63
2022/03/26 03:44:41;;;;;;;46.42;29.23;;;;;;;8.01;59.43;102967.25;5091343;28;20119;-63
2022/03/26 03:47:07;;;;;;;46.85;29.52;;;;;;;8.10;59.25;102984.75;5081237;28;20398;-63
2022/03/26 03:49:32;;;;;;;48.03;29.10;;;;;;;8.04;59.35;102975.13;5081458;28;20097;-63
2022/03/26 03:51:58;;;;;;;46.70;28.77;;;;;;;8.09;59.06;102981.22;5108670;28;20032;-63
2022/03/26 03:54:24;;;;;;;48.17;30.30;;;;;;;8.02;59.03;102981.38;5106800;28;20102;-63
2022/03/26 03:56:50;;;;;;;44.67;29.58;;;;;;;7.92;59.98;103000.06;5103795;28;20024;-63
2022/03/26 03:59:16;;;;;;;44.45;28.60;;;;;;;7.82;60.33;102992.31;5075389;28;20028;-63
2022/03/26 04:01:42;;;;;;;44.15;29.65;;;;;;;7.59;60.96;102990.94;5090246;28;20035;-63
2022/03/26 04:04:07;;;;;;;45.40;28.17;;;;;;;7.64;60.65;102993.47;5104422;28;20024;-62
2022/03/26 04:06:33;;;;;;;41.05;28.90;;;;;;;7.73;60.09;103001.28;5063153;28;20024;-63
2022/03/26 04:08:59;;;;;;;52.13;29.50;;;;;;;7.68;60.30;102998.72;5077618;28;20081;-63
2022/03/26 04:11:24;;;;;;;46.17;29.45;;;;;;;7.56;60.88;102995.38;5096293;28;20030;-63
2022/03/26 04:13:53;;;;;;;45.60;28.48;;;;;;;7.55;61.10;103001.56;5099943;28;20084;-63
2022/03/26 04:16:22;;;;;;;50.27;28.53;;;;;;;7.46;61.76;102998.16;5058564;28;20046;-62
2022/03/26 04:18:48;;;;;;;53.77;29.63;;;;;;;7.49;61.18;102998.13;5093566;28;20474;-62
2022/03/26 04:21:14;;;;;;;42.38;27.95;;;;;;;7.46;61.16;102989.34;5077593;28;20277;-63
2022/03/26 04:23:40;;;;;;;49.25;28.98;;;;;;;7.46;61.57;103002.59;5110620;28;21191;-63
2022/03/26 04:26:07;;;;;;;44.22;27.00;;;;;;;7.32;61.26;102993.97;5088887;28;20584;-63
2022/03/26 04:28:33;;;;;;;45.45;27.70;;;;;;;7.34;61.49;103002.78;5097867;28;20044;-63
2022/03/26 04:30:59;;;;;;;48.83;29.13;;;;;;;7.33;62.11;103001.03;5096119;28;20035;-63
2022/03/26 04:33:24;;;;;;;47.28;28.30;;;;;;;7.15;61.80;102984.53;5102855;28;20024;-62
2022/03/26 04:35:52;;;;;;;43.72;28.33;;;;;;;7.23;62.44;102994.97;5085120;28;20036;-63
2022/03/26 04:38:20;;;;;;;47.10;29.63;;;;;;;7.26;61.98;102995.84;5103538;28;20035;-63
2022/03/26 04:40:46;;;;;;;45.22;28.23;;;;;;;7.25;62.14;102983.47;5111236;28;20110;-63
2022/03/26 04:43:12;;;;;;;42.28;27.50;;;;;;;7.35;61.88;102996.56;5107264;28;20062;-63
2022/03/26 04:45:40;;;;;;;48.92;29.85;;;;;;;7.32;61.75;102993.97;5100578;28;20502;-62
2022/03/26 04:48:05;;;;;;;44.13;27.70;;;;;;;7.26;62.56;102990.56;5092861;28;20024;-62
2022/03/26 04:50:31;;;;;;;51.67;27.92;;;;;;;7.30;61.82;102991.38;5089006;28;20046;-63
2022/03/26 04:52:56;;;;;;;47.50;27.65;;;;;;;7.23;62.85;102992.34;5075690;28;20027;-63
2022/03/26 04:55:22;;;;;;;44.75;28.35;;;;;;;7.27;62.15;102987.00;5074869;28;20051;-62
2022/03/26 04:57:48;;;;;;;45.45;29.13;;;;;;;7.21;62.28;102986.22;5095040;28;20084;-63
2022/03/26 05:00:16;;;;;;;49.60;29.80;;;;;;;7.15;62.84;102989.81;5100022;28;20027;-63
2022/03/26 05:02:42;;;;;;;46.20;28.33;;;;;;;7.09;62.44;102991.66;5096753;28;20026;-63
2022/03/26 05:05:10;;;;;;;42.88;28.15;;;;;;;7.07;62.41;102988.19;5103239;28;20114;-63
2022/03/26 05:07:47;;;;;;;50.40;29.33;;;;;;;7.11;62.23;102987.22;5098413;28;20024;-63
2022/03/26 05:10:17;;;;;;;48.65;29.10;;;;;;;7.08;62.85;102984.63;5090743;28;20111;-63
2022/03/26 05:12:44;;;;;;;47.67;28.52;;;;;;;7.12;62.24;102984.56;5093260;28;20386;-63
2022/03/26 05:15:11;;;;;;;44.40;28.15;;;;;;;7.12;61.99;102987.22;5093184;28;20023;-63
2022/03/26 05:17:37;;;;;;;45.78;29.02;;;;;;;6.98;62.98;102992.69;5084128;28;20027;-63
2022/03/26 05:20:08;;;;;;;45.53;29.20;;;;;;;6.95;62.54;102987.44;5090653;28;20028;-63
2022/03/26 05:22:34;;;;;;;47.80;28.33;;;;;;;6.97;63.19;102988.31;5091688;28;20096;-63
2022/03/26 05:24:59;;;;;;;47.90;28.30;;;;;;;6.97;62.21;102996.25;5109596;28;20475;-63
2022/03/26 05:27:25;;;;;;;55.30;28.60;;;;;;;6.88;62.49;103001.63;5087396;28;20507;-63
2022/03/26 05:29:50;;;;;;;50.88;29.75;;;;;;;6.90;62.68;102994.56;5060976;28;20424;-63
2022/03/26 05:32:19;;;;;;;45.33;29.13;;;;;;;6.94;62.84;103012.16;5067952;28;20032;-63
2022/03/26 05:34:44;;;;;;;47.10;28.00;;;;;;;6.96;62.32;103014.75;5096719;28;20039;-63
2022/03/26 05:37:10;;;;;;;46.33;28.75;;;;;;;6.78;63.29;103018.53;5100511;28;20028;-63
2022/03/26 05:39:36;;;;;;;49.30;28.83;;;;;;;6.82;63.36;103022.88;5097518;28;20141;-63
2022/03/26 05:42:03;;;;;;;41.10;28.67;;;;;;;6.81;63.57;103016.72;5103621;28;20091;-63
2022/03/26 05:44:29;;;;;;;49.70;29.10;;;;;;;6.91;63.09;103024.53;5100329;28;20034;-63
2022/03/26 05:46:54;;;;;;;45.10;29.17;;;;;;;6.87;63.82;103022.81;5110470;28;20479;-63
2022/03/26 05:49:21;;;;;;;41.17;28.60;;;;;;;6.78;63.96;103024.69;5110147;28;20040;-63
2022/03/26 05:51:46;;;;;;;46.28;28.30;;;;;;;6.78;63.73;103027.31;5074205;28;20024;-63
2022/03/26 05:54:12;;;;;;;48.35;28.27;;;;;;;6.81;63.44;103034.34;5104773;28;20023;-62
2022/03/26 05:56:40;;;;;;;43.58;30.10;;;;;;;6.76;64.16;103037.03;5100380;28;20260;-63
2022/03/26 05:59:09;;;;;;;45.30;28.33;;;;;;;6.79;63.90;103041.41;5105213;28;20031;-63
2022/03/26 06:01:35;;;;;;;46.67;28.65;;;;;;;6.76;64.16;103044.97;5094142;28;20024;-63
2022/03/26 06:04:01;;;;;;;49.10;28.38;;;;;;;6.76;63.86;103041.47;5056773;28;20058;-63
2022/03/26 06:06:27;;;;;;;43.63;29.52;;;;;;;6.79;64.30;103049.34;5108520;28;20098;-63
2022/03/26 06:08:53;;;;;;;44.88;28.83;;;;;;;6.75;64.56;103040.59;5114429;28;20046;-63
2022/03/26 06:11:18;;;;;;;47.55;29.48;;;;;;;6.75;64.43;103055.59;5095886;28;20059;-63
2022/03/26 06:13:44;;;;;;;44.33;27.88;;;;;;;6.85;64.16;103051.94;5096263;28;20032;-63
2022/03/26 06:16:10;;;;;;;43.03;29.92;;;;;;;6.91;65.00;103048.34;5104345;28;20028;-63
2022/03/26 06:18:38;;;;;;;48.45;30.40;;;;;;;6.93;64.92;103052.72;5085661;28;20382;-63
2022/03/26 06:21:07;;;;;;;47.30;29.48;;;;;;;6.95;63.89;103056.22;5105296;28;20023;-63
2022/03/26 06:23:34;;;;;;;52.75;30.00;;;;;;;6.99;64.21;103054.41;5079076;28;20030;-63
2022/03/26 06:26:00;;;;;;;50.17;30.30;;;;;;;7.16;64.29;103049.78;5096640;28;20028;-63
2022/03/26 06:28:26;;;;;;;53.38;30.08;;;;;;;7.11;64.06;103041.03;5071794;28;20550;-63
2022/03/26 06:30:54;;;;;;;49.95;30.15;;;;;;;7.30;64.33;103043.44;5075311;28;20391;-64
2022/03/26 06:33:22;;;;;;;45.60;31.23;;;;;;;7.38;63.38;103058.31;5101034;28;20502;-63
2022/03/26 06:35:48;;;;;;;45.08;29.42;;;;;;;7.43;63.64;103056.47;5093340;28;20032;-63
2022/03/26 06:38:13;;;;;;;54.08;29.70;;;;;;;7.46;63.10;103053.75;5090615;28;20047;-63
2022/03/26 06:40:39;;;;;;;47.58;30.08;;;;;;;7.64;63.02;103062.34;5095028;28;20080;-63
2022/03/26 06:43:06;;;;;;;46.13;31.17;;;;;;;7.60;63.08;103065.94;5113702;28;20076;-63
2022/03/26 06:45:34;;;;;;;55.78;30.60;;;;;;;7.72;62.84;103063.09;5113700;28;20037;-63
2022/03/26 06:47:59;;;;;;;51.83;29.60;;;;;;;7.75;63.61;103071.00;5113765;28;20028;-63
2022/03/26 06:50:26;;;;;;;52.65;29.95;;;;;;;7.85;62.31;103061.13;5108392;28;20043;-63
2022/03/26 06:52:52;;;;;;;54.28;29.58;;;;;;;7.93;61.76;103067.19;5093837;28;20069;-63
2022/03/26 06:55:18;;;;;;;50.65;30.33;;;;;;;8.03;61.65;103066.16;5076038;28;20296;-63
2022/03/26 06:57:44;;;;;;;53.20;31.02;;;;;;;8.10;61.24;103077.50;5083239;28;20027;-63
2022/03/26 07:00:11;;;;;;;55.58;31.08;;;;;;;8.17;61.25;103074.72;5113520;28;20434;-63
2022/03/26 07:02:37;;;;;;;64.05;30.80;;;;;;;8.23;60.66;103072.88;5094812;28;20026;-63
2022/03/26 07:05:03;;;;;;;51.13;30.67;;;;;;;8.29;60.56;103078.94;5094904;28;20019;-63
2022/03/26 07:07:32;;;;;;;51.17;31.45;;;;;;;8.44;60.36;103076.94;5095721;28;20048;-63
2022/03/26 07:10:00;;;;;;;55.15;31.70;;;;;;;8.54;60.09;103086.50;5110313;28;20020;-63
2022/03/26 07:12:29;;;;;;;49.40;30.80;;;;;;;8.74;59.67;103088.78;5112908;28;20020;-63
2022/03/26 07:15:11;;;;;;;50.95;30.58;;;;;;;8.87;59.13;103079.66;5050039;28;20124;-63
2022/03/26 07:17:42;;;;;;;50.38;30.25;;;;;;;9.03;58.82;103081.13;5050290;28;20478;-63
2022/03/26 07:20:08;;;;;;;57.00;30.73;;;;;;;9.20;58.06;103083.38;5033081;28;20110;-63
2022/03/26 07:22:34;;;;;;;48.67;29.98;;;;;;;9.35;58.05;103081.31;5023030;28;20014;-63
2022/03/26 07:25:00;;;;;;;48.55;30.40;;;;;;;9.38;57.42;103078.59;5030157;28;20037;-63
2022/03/26 07:27:30;;;;;;;53.58;29.90;;;;;;;9.52;57.06;103077.38;5026518;28;20032;-63
2022/03/26 07:29:55;;;;;;;47.85;31.15;;;;;;;9.64;57.10;103078.88;5049908;28;20045;-63
2022/03/26 07:32:22;;;;;;;50.88;30.27;;;;;;;9.83;56.88;103084.66;5049935;28;20037;-63
2022/03/26 07:34:48;;;;;;;49.42;30.95;;;;;;;9.90;56.48;103077.38;5032943;28;20068;-63
2022/03/26 07:37:16;;;;;;;52.20;31.10;;;;;;;10.04;56.39;103072.59;5040082;28;20071;-63
2022/03/26 07:39:43;;;;;;;53.72;30.30;;;;;;;10.24;55.78;103086.28;5013629;28;20156;-63
2022/03/26 07:42:09;;;;;;;52.97;33.03;;;;;;;10.34;55.35;103092.25;5013223;28;20018;-63
2022/03/26 07:44:35;;;;;;;49.38;31.77;;;;;;;10.37;54.77;103093.97;5034355;28;20056;-63
2022/03/26 07:47:00;;;;;;;48.83;30.20;;;;;;;10.57;54.97;103101.44;5083080;28;20047;-63
2022/03/26 07:49:28;;;;;;;48.85;30.67;;;;;;;10.67;54.58;103100.25;5104311;28;20043;-63
2022/03/26 07:51:57;;;;;;;53.03;30.58;;;;;;;10.74;54.52;103087.66;5092867;28;20115;-63
2022/03/26 07:54:23;;;;;;;55.78;30.02;;;;;;;10.89;54.39;103096.09;5109159;28;20387;-63
2022/03/26 07:56:48;;;;;;;48.47;29.63;;;;;;;10.99;54.32;103101.16;5089631;28;20035;-63
2022/03/26 07:59:14;;;;;;;48.80;29.92;;;;;;;11.16;53.43;103101.53;5073752;28;20028;-63
2022/03/26 08:01:40;;;;;;;51.53;29.48;;;;;;;11.21;53.11;103096.09;5083243;28;20036;-63
2022/03/26 08:04:08;;;;;;;49.78;29.13;;;;;;;11.44;54.23;103100.69;5086284;28;20115;-63
2022/03/26 08:06:33;;;;;;;49.67;30.00;;;;;;;11.56;53.07;103097.69;5100251;28;20605;-63
2022/03/26 08:08:59;;;;;;;46.03;28.33;;;;;;;11.76;52.24;103094.38;5091753;28;20104;-63
2022/03/26 08:11:25;;;;;;;47.80;28.80;;;;;;;11.92;52.56;103102.81;5072952;28;20035;-63
2022/03/26 08:13:50;;;;;;;53.35;28.75;;;;;;;12.04;51.29;103091.72;5077083;28;20027;-63
2022/03/26 08:16:16;;;;;;;47.88;27.08;;;;;;;12.23;50.98;103100.84;5092601;28;20028;-63
2022/03/26 08:18:44;;;;;;;49.40;28.42;;;;;;;12.34;51.56;103102.28;5098991;28;20355;-63
2022/03/26 08:21:10;;;;;;;46.40;27.70;;;;;;;12.51;51.22;103097.25;5093412;28;20032;-63
2022/03/26 08:23:36;;;;;;;37.78;25.92;;;;;;;12.77;50.22;103106.13;5079689;28;20027;-63
2022/03/26 08:26:19;;;;;;;44.05;27.33;;;;;;;12.91;50.10;103102.03;5085779;28;20028;-63
2022/03/26 08:28:45;;;;;;;40.75;25.70;;;;;;;13.06;49.58;103100.59;5111466;28;20044;-63
2022/03/26 08:31:13;;;;;;;42.20;25.08;;;;;;;13.17;48.75;103103.69;5111528;28;20036;-63
2022/03/26 08:33:41;;;;;;;46.20;27.77;;;;;;;13.47;48.56;103106.19;5092952;28;20035;-63
2022/03/26 08:36:10;;;;;;;45.25;26.92;;;;;;;13.56;48.25;103112.94;5100745;28;20050;-63
2022/03/26 08:38:35;;;;;;;38.17;25.23;;;;;;;13.68;47.92;103104.47;5093577;28;20019;-63
2022/03/26 08:41:01;;;;;;;43.20;26.50;;;;;;;13.93;47.41;103112.34;5093050;28;20042;-63
2022/03/26 08:43:29;;;;;;;41.22;25.00;;;;;;;13.98;46.76;103098.81;5111745;28;20039;-63
2022/03/26 08:45:57;;;;;;;45.28;27.17;;;;;;;14.15;48.10;103116.81;5111476;28;20474;-63
2022/03/26 08:48:23;;;;;;;41.33;27.92;;;;;;;14.33;48.08;103113.38;5094607;28;20035;-63
2022/03/26 08:50:49;;;;;;;42.88;27.13;;;;;;;14.40;48.36;103114.84;5072196;28;20020;-63
2022/03/26 08:53:14;;;;;;;43.47;28.40;;;;;;;14.59;47.13;103120.34;5091325;28;20103;-63
2022/03/26 08:55:42;;;;;;;42.33;26.38;;;;;;;14.71;46.44;103118.94;5090958;28;20115;-63
2022/03/26 08:58:08;;;;;;;43.08;25.02;;;;;;;14.84;45.81;103122.78;5111275;28;20428;-63
2022/03/26 09:00:34;;;;;;;42.38;24.48;;;;;;;14.97;45.53;103120.41;5092918;28;20028;-63
2022/03/26 09:03:01;;;;;;;39.88;26.33;;;;;;;15.08;45.18;103119.94;5111404;28;20035;-63
2022/03/26 09:05:26;;;;;;;38.95;25.13;;;;;;;15.12;46.19;103118.88;5111116;28;20023;-63
2022/03/26 09:07:53;;;;;;;43.63;26.33;;;;;;;15.13;45.94;103117.94;5110712;28;20036;-64
2022/03/26 09:10:19;;;;;;;40.22;24.75;;;;;;;15.39;44.96;103127.44;5105535;28;20020;-63
2022/03/26 09:12:44;;;;;;;45.63;25.58;;;;;;;15.58;44.10;103120.25;5106488;28;20084;-63
2022/03/26 09:15:12;;;;;;;38.53;26.02;;;;;;;15.78;44.37;103119.31;5110799;28;20110;-63
2022/03/26 09:17:38;;;;;;;39.88;26.45;;;;;;;15.77;45.29;103120.28;5110607;28;20124;-64
2022/03/26 09:20:05;;;;;;;42.45;26.58;;;;;;;15.91;43.99;103130.31;5110671;28;20110;-63
2022/03/26 09:22:31;;;;;;;45.85;28.27;;;;;;;16.09;43.41;103126.75;5110888;28;20038;-63
2022/03/26 09:24:57;;;;;;;47.05;28.23;;;;;;;16.19;43.94;103124.47;5086778;28;20034;-63
2022/03/26 09:27:23;;;;;;;50.05;29.15;;;;;;;16.28;44.10;103128.50;5098131;28;20024;-63
2022/03/26 09:29:48;;;;;;;46.03;28.02;;;;;;;16.29;42.67;103133.78;5101018;28;20498;-64
2022/03/26 09:32:14;;;;;;;44.28;26.27;;;;;;;16.45;42.46;103130.34;5106411;28;20431;-64
2022/03/26 09:34:39;;;;;;;41.80;28.83;;;;;;;16.61;42.80;103128.56;5086801;28;20034;-63
2022/03/26 09:37:05;;;;;;;49.40;28.77;;;;;;;16.80;42.25;103131.22;5103538;28;20032;-63
2022/03/26 09:39:31;;;;;;;47.75;30.05;;;;;;;16.94;42.21;103120.59;5093170;28;20108;-63
2022/03/26 09:41:57;;;;;;;45.53;29.65;;;;;;;17.01;41.32;103132.75;5096000;28;20031;-63
2022/03/26 09:44:26;;;;;;;48.42;29.48;;;;;;;16.98;41.49;103122.16;5104768;28;20447;-63
2022/03/26 09:46:51;;;;;;;43.80;28.25;;;;;;;17.18;40.56;103120.22;5095091;28;21592;-63
2022/03/26 09:49:17;;;;;;;49.42;27.25;;;;;;;17.27;40.89;103122.41;5100618;28;20038;-62
2022/03/26 09:51:45;;;;;;;38.17;25.70;;;;;;;17.42;40.12;103120.69;5084239;28;20056;-62
2022/03/26 09:54:16;;;;;;;40.23;26.13;;;;;;;17.52;39.92;103119.22;5097519;28;20318;-62
2022/03/26 09:56:43;;;;;;;42.60;26.35;;;;;;;17.71;39.94;103105.59;5092719;28;20427;-62
2022/03/26 09:59:09;;;;;;;45.38;26.05;;;;;;;17.78;41.11;103114.22;5089956;28;20050;-61
2022/03/26 10:01:35;;;;;;;43.15;24.45;;;;;;;17.87;39.39;103110.97;5113323;28;20431;-62
2022/03/26 10:04:07;;;;;;;37.53;26.42;;;;;;;17.92;39.74;103117.84;5093835;28;20024;-62
2022/03/26 10:06:33;;;;;;;42.83;25.98;;;;;;;18.13;39.32;103117.56;5095056;28;20402;-62
2022/03/26 10:08:59;;;;;;;47.38;25.35;;;;;;;18.08;39.80;103114.25;5111877;28;20431;-62
2022/03/26 10:11:25;;;;;;;43.78;27.15;;;;;;;18.31;38.48;103115.59;5060728;28;20024;-62
2022/03/26 10:13:55;;;;;;;43.63;26.98;;;;;;;18.27;38.62;103117.59;5111409;28;20471;-63
2022/03/26 10:16:21;;;;;;;48.28;28.92;;;;;;;18.35;39.55;103117.13;5110332;28;20446;-62
2022/03/26 10:18:50;;;;;;;36.30;24.92;;;;;;;18.39;39.04;103119.56;5093534;28;20028;-63
2022/03/26 10:21:20;;;;;;;40.67;25.70;;;;;;;18.56;37.43;103113.16;5076810;28;20059;-62
2022/03/26 10:23:48;;;;;;;44.83;25.00;;;;;;;18.61;37.33;103118.25;5091015;28;20034;-62
2022/03/26 10:26:19;;;;;;;43.60;24.95;;;;;;;18.91;37.22;103118.22;5106360;28;20363;-62
2022/03/26 10:28:58;;;;;;;37.92;25.70;;;;;;;19.09;36.21;103124.31;5098985;28;20050;-62
2022/03/26 10:34:19;;;;;;;35.92;22.15;;;;;;;19.34;35.89;103117.34;5107636;28;20566;-62
2022/03/26 10:37:01;;;;;;;31.70;21.33;;;;;;;19.46;35.81;103116.56;5093635;28;20453;-62
2022/03/26 10:39:28;;;;;;;33.53;19.65;;;;;;;19.49;34.60;103121.75;5098048;28;20035;-62
2022/03/26 10:41:57;;;;;;;32.90;19.30;;;;;;;19.57;34.01;103114.03;5095248;28;20031;-62
2022/03/26 10:44:29;;;;;;;32.97;19.25;;;;;;;19.63;32.90;103110.06;5101322;28;20026;-62
2022/03/26 10:46:58;;;;;;;31.63;19.65;;;;;;;19.86;32.68;103117.56;5101969;28;20131;-62
2022/03/26 10:49:36;;;;;;;29.52;18.77;;;;;;;19.70;32.55;103098.78;5104600;28;20023;-62
2022/03/26 10:52:14;;;;;;;32.58;18.27;;;;;;;20.02;33.00;103098.47;5107460;28;20032;-62
2022/03/26 10:54:40;;;;;;;30.73;19.30;;;;;;;20.14;32.20;103096.78;5108530;28;20016;-62
2022/03/26 10:57:06;;;;;;;29.48;18.58;;;;;;;20.00;32.33;103102.25;5108347;28;20031;-62
2022/03/26 10:59:32;;;;;;;30.73;18.73;;;;;;;20.16;31.93;103092.16;5062080;28;20043;-62
2022/03/26 11:02:01;;;;;;;31.38;19.05;;;;;;;20.23;31.46;103095.31;5085630;28;20055;-62
2022/03/26 11:04:29;;;;;;;30.30;18.40;;;;;;;20.36;31.84;103091.66;5110995;28;20026;-62
2022/03/26 11:06:58;;;;;;;29.48;18.15;;;;;;;20.51;31.07;103097.84;5094915;28;20085;-62
2022/03/26 11:09:26;;;;;;;27.75;17.25;;;;;;;20.78;30.64;103089.66;5096141;28;20035;-63
2022/03/26 11:11:51;;;;;;;31.88;17.70;;;;;;;21.05;30.23;103094.06;5080435;28;20550;-63
2022/03/26 11:14:24;;;;;;;30.25;16.17;;;;;;;21.28;30.00;103087.84;5093406;28;20122;-62